createdAt,value
2022-08-17T00:01:52.107Z,23.88
2022-08-17T00:04:21.682Z,23.86
2022-08-17T00:06:50.448Z,23.82
2022-08-17T00:09:19.478Z,23.79
2022-08-17T00:12:35.476Z,23.74
2022-08-17T00:14:38.082Z,23.68
2022-08-17T00:17:08.256Z,23.63
2022-08-17T00:19:36.414Z,23.62
2022-08-17T00:22:33.653Z,23.60
2022-08-17T00:24:54.764Z,23.58
2022-08-17T00:27:22.748Z,23.57
2022-08-17T00:29:50.586Z,23.59
2022-08-17T00:33:14.542Z,23.59
2022-08-17T00:35:10.710Z,23.56
2022-08-17T00:37:39.066Z,23.51
2022-08-17T00:40:08.468Z,23.49
2022-08-17T00:42:36.980Z,23.47
2022-08-17T00:45:06.055Z,23.44
2022-08-17T00:47:35.291Z,23.40
2022-08-17T00:50:03.558Z,23.38
2022-08-17T00:52:36.238Z,23.35
2022-08-17T00:55:07.160Z,23.34
2022-08-17T00:57:39.960Z,23.35
2022-08-17T01:00:12.578Z,23.36
2022-08-17T01:02:46.047Z,23.35
2022-08-17T01:05:20.696Z,23.37
2022-08-17T01:07:51.124Z,23.36
2022-08-17T01:10:59.577Z,23.31
2022-08-17T01:13:11.306Z,23.25
2022-08-17T01:15:48.680Z,23.18
2022-08-17T01:18:18.121Z,23.18
2022-08-17T01:20:49.713Z,23.18
2022-08-17T01:23:21.292Z,23.18
2022-08-17T01:25:51.209Z,23.15
2022-08-17T01:28:52.372Z,23.12
2022-08-17T01:31:09.489Z,23.10
2022-08-17T01:33:38.383Z,23.05
2022-08-17T01:36:08.056Z,22.97
2022-08-17T01:38:38.048Z,22.94
2022-08-17T01:41:09.501Z,22.91
2022-08-17T01:43:44.403Z,22.88
2022-08-17T01:46:16.941Z,22.86
2022-08-17T01:48:47.349Z,22.83
2022-08-17T01:51:16.605Z,22.82
2022-08-17T01:53:49.393Z,22.83
2022-08-17T01:56:22.808Z,22.79
2022-08-17T01:58:50.982Z,22.74
2022-08-17T02:01:24.766Z,22.68
2022-08-17T02:03:59.396Z,22.65
2022-08-17T02:06:43.982Z,22.57
2022-08-17T02:09:23.282Z,22.49
2022-08-17T02:11:53.322Z,22.38
2022-08-17T02:14:23.353Z,22.35
2022-08-17T02:16:51.334Z,22.38
2022-08-17T02:19:19.411Z,22.29
2022-08-17T02:21:50.233Z,22.24
2022-08-17T02:24:59.329Z,22.18
2022-08-17T02:27:10.766Z,22.14
2022-08-17T02:29:38.739Z,22.16
2022-08-17T02:32:07.028Z,22.16
2022-08-17T02:34:35.168Z,22.18
2022-08-17T02:37:03.034Z,22.18
2022-08-17T02:39:32.255Z,22.21
2022-08-17T02:42:04.790Z,22.21
2022-08-17T02:44:39.405Z,22.22
2022-08-17T02:47:09.621Z,22.22
2022-08-17T02:49:37.878Z,22.16
2022-08-17T02:52:07.611Z,22.05
2022-08-17T02:54:40.718Z,22.03
2022-08-17T02:57:10.289Z,22.04
2022-08-17T02:59:38.871Z,22.03
2022-08-17T03:02:08.186Z,22.04
2022-08-17T03:04:36.340Z,22.04
2022-08-17T03:07:05.654Z,22.03
2022-08-17T03:09:33.828Z,22.04
2022-08-17T03:12:07.059Z,22.03
2022-08-17T03:14:41.287Z,22.02
2022-08-17T03:17:10.965Z,21.99
2022-08-17T03:19:45.478Z,21.95
2022-08-17T03:22:36.438Z,21.93
2022-08-17T03:25:02.036Z,21.90
2022-08-17T03:27:31.400Z,21.89
2022-08-17T03:29:59.365Z,21.90
2022-08-17T03:32:27.589Z,21.89
2022-08-17T03:34:59.319Z,21.89
2022-08-17T03:37:28.017Z,21.89
2022-08-17T03:39:55.940Z,21.85
2022-08-17T03:42:32.448Z,21.84
2022-08-17T03:45:03.296Z,21.84
2022-08-17T03:48:01.351Z,21.85
2022-08-17T03:50:58.691Z,21.82
2022-08-17T03:53:43.476Z,21.76
2022-08-17T03:56:29.808Z,21.70
2022-08-17T03:58:57.737Z,21.72
2022-08-17T04:01:27.881Z,21.71
2022-08-17T04:03:56.465Z,21.73
2022-08-17T04:06:24.377Z,21.74
2022-08-17T04:08:52.176Z,21.72
2022-08-17T04:11:20.553Z,21.69
2022-08-17T04:13:48.400Z,21.69
2022-08-17T04:16:16.784Z,21.69
2022-08-17T04:18:46.317Z,21.70
2022-08-17T04:21:14.209Z,21.71
2022-08-17T04:23:42.058Z,21.73
2022-08-17T04:26:11.509Z,21.75
2022-08-17T04:28:59.814Z,21.78
2022-08-17T04:31:28.542Z,21.79
2022-08-17T04:33:57.806Z,21.85
2022-08-17T04:36:25.653Z,21.91
2022-08-17T04:38:53.785Z,21.94
2022-08-17T04:41:39.432Z,21.95
2022-08-17T04:44:11.731Z,22.00
2022-08-17T04:46:40.119Z,22.06
2022-08-17T04:49:10.830Z,22.15
2022-08-17T04:51:54.704Z,22.24
2022-08-17T04:54:28.082Z,22.32
2022-08-17T04:56:56.175Z,22.42
2022-08-17T04:59:24.236Z,22.50
2022-08-17T05:01:53.023Z,22.57
2022-08-17T05:04:34.901Z,22.66
2022-08-17T05:07:04.510Z,22.75
2022-08-17T05:09:33.449Z,22.80
2022-08-17T05:12:01.703Z,22.88
2022-08-17T05:14:32.942Z,23.00
2022-08-17T05:17:02.058Z,23.04
2022-08-17T05:19:38.815Z,23.15
2022-08-17T05:22:07.523Z,23.28
2022-08-17T05:24:42.543Z,23.35
2022-08-17T05:27:18.808Z,23.42
2022-08-17T05:29:47.196Z,23.55
2022-08-17T05:32:38.580Z,23.62
2022-08-17T05:35:06.396Z,23.70
2022-08-17T05:37:34.564Z,23.77
2022-08-17T05:40:02.531Z,23.86
2022-08-17T05:42:30.526Z,23.97
2022-08-17T05:44:58.901Z,24.12
2022-08-17T05:47:28.103Z,24.26
2022-08-17T05:49:56.278Z,24.38
2022-08-17T05:52:41.055Z,24.56
2022-08-17T05:55:19.356Z,24.72
2022-08-17T05:58:07.544Z,24.90
2022-08-17T06:00:44.118Z,25.12
2022-08-17T06:03:26.243Z,25.25
2022-08-17T06:06:18.168Z,25.37
2022-08-17T06:08:55.047Z,25.51
2022-08-17T06:11:29.804Z,25.56
2022-08-17T06:14:14.526Z,25.60
2022-08-17T06:16:51.809Z,25.59
2022-08-17T06:19:28.700Z,25.61
2022-08-17T06:21:57.176Z,25.66
2022-08-17T06:24:31.385Z,25.71
2022-08-17T06:27:08.196Z,25.78
2022-08-17T06:29:45.571Z,25.84
2022-08-17T06:32:14.496Z,25.86
2022-08-17T06:34:44.598Z,25.88
2022-08-17T06:37:31.073Z,25.96
2022-08-17T06:40:11.057Z,26.02
2022-08-17T06:43:06.180Z,26.07
2022-08-17T06:45:40.549Z,26.13
2022-08-17T06:48:16.022Z,26.18
2022-08-17T06:50:48.573Z,26.26
2022-08-17T06:53:23.209Z,26.33
2022-08-17T06:55:59.838Z,26.44
2022-08-17T06:58:31.860Z,26.56
2022-08-17T07:01:06.637Z,26.62
2022-08-17T07:03:39.549Z,26.70
2022-08-17T07:06:13.473Z,26.81
2022-08-17T07:08:56.200Z,26.90
2022-08-17T07:11:28.331Z,27.08
2022-08-17T07:14:04.314Z,27.18
2022-08-17T07:16:39.314Z,27.31
2022-08-17T07:19:08.064Z,27.42
2022-08-17T07:21:54.992Z,27.47
2022-08-17T07:24:37.258Z,27.48
2022-08-17T07:27:16.144Z,27.58
2022-08-17T07:29:49.428Z,27.67
2022-08-17T07:32:23.198Z,27.75
2022-08-17T07:35:21.124Z,27.79
2022-08-17T07:37:54.136Z,27.89
2022-08-17T07:40:27.984Z,27.95
2022-08-17T07:43:23.044Z,28.09
2022-08-17T07:46:26.824Z,28.21
2022-08-17T07:48:57.053Z,28.30
2022-08-17T07:51:28.582Z,28.45
2022-08-17T07:54:13.613Z,28.59
2022-08-17T07:56:46.535Z,28.76
2022-08-17T07:59:23.302Z,28.88
2022-08-17T08:02:05.871Z,29.07
2022-08-17T08:04:59.212Z,29.27
2022-08-17T08:07:28.871Z,29.43
2022-08-17T08:10:10.684Z,29.62
2022-08-17T08:12:41.023Z,29.79
2022-08-17T08:15:18.953Z,29.92
2022-08-17T08:17:51.733Z,30.07
2022-08-17T08:20:50.898Z,30.20
2022-08-17T08:23:27.440Z,30.36
2022-08-17T08:26:10.152Z,30.58
2022-08-17T08:28:51.140Z,30.83
2022-08-17T08:31:31.470Z,31.07
2022-08-17T08:34:44.441Z,31.22
2022-08-17T08:37:16.575Z,31.41
2022-08-17T08:39:55.423Z,31.66
2022-08-17T08:42:32.870Z,31.95
2022-08-17T08:45:11.928Z,32.26
2022-08-17T08:48:22.781Z,32.47
2022-08-17T08:51:05.195Z,32.65
2022-08-17T08:53:41.951Z,32.91
2022-08-17T08:56:17.362Z,33.12
2022-08-17T08:58:52.912Z,33.34
2022-08-17T09:01:30.480Z,33.42
2022-08-17T09:04:25.141Z,33.54
2022-08-17T09:07:04.370Z,33.85
2022-08-17T09:09:42.120Z,34.09
2022-08-17T09:12:16.806Z,34.23
2022-08-17T09:14:57.606Z,34.40
2022-08-17T09:17:36.519Z,34.59
2022-08-17T09:20:27.716Z,34.88
2022-08-17T09:23:03.373Z,35.14
2022-08-17T09:25:36.181Z,35.33
2022-08-17T09:28:07.835Z,35.53
2022-08-17T09:30:41.948Z,35.82
2022-08-17T09:33:13.760Z,36.06
2022-08-17T09:35:48.945Z,36.22
2022-08-17T09:38:24.143Z,36.45
2022-08-17T09:40:58.390Z,36.64
2022-08-17T09:43:34.982Z,36.75
2022-08-17T09:46:09.432Z,36.94
2022-08-17T09:48:42.820Z,37.00
2022-08-17T09:51:30.459Z,37.18
2022-08-17T09:54:09.683Z,37.45
2022-08-17T09:57:25.862Z,37.56
2022-08-17T10:00:01.167Z,37.52
2022-08-17T10:02:53.516Z,37.69
2022-08-17T10:05:25.348Z,37.45
2022-08-17T10:08:01.832Z,37.28
2022-08-17T10:10:35.015Z,37.32
2022-08-17T10:13:10.568Z,37.38
2022-08-17T10:15:52.177Z,37.47
2022-08-17T10:18:41.727Z,37.55
2022-08-17T10:21:30.910Z,37.60
2022-08-17T10:24:24.839Z,37.73
2022-08-17T10:26:57.483Z,37.87
2022-08-17T10:29:44.145Z,37.94
2022-08-17T10:32:27.250Z,38.04
2022-08-17T10:35:25.914Z,38.02
2022-08-17T10:38:19.583Z,38.10
2022-08-17T10:40:58.591Z,38.22
2022-08-17T10:43:57.902Z,38.21
2022-08-17T10:46:56.256Z,38.44
2022-08-17T10:49:29.358Z,38.51
2022-08-17T10:51:59.929Z,38.41
2022-08-17T10:54:41.772Z,38.46
2022-08-17T11:00:03.734Z,38.73
2022-08-17T11:02:41.315Z,38.73
2022-08-17T11:05:44.229Z,38.51
2022-08-17T11:08:50.359Z,38.63
2022-08-17T11:11:52.526Z,38.74
2022-08-17T11:14:33.358Z,38.89
2022-08-17T11:17:17.388Z,38.98
2022-08-17T11:20:29.908Z,39.00
2022-08-17T11:23:25.490Z,38.87
2022-08-17T11:25:56.424Z,38.73
2022-08-17T11:28:28.908Z,38.73
2022-08-17T11:31:00.254Z,38.75
2022-08-17T11:34:03.434Z,38.94
2022-08-17T11:36:49.356Z,38.97
2022-08-17T11:39:31.654Z,39.02
2022-08-17T11:42:06.537Z,38.81
2022-08-17T11:44:50.488Z,38.88
2022-08-17T11:47:42.648Z,39.04
2022-08-17T11:51:15.724Z,39.10
2022-08-17T11:54:31.260Z,39.12
2022-08-17T11:56:52.785Z,39.04
2022-08-17T11:59:59.424Z,38.84
2022-08-17T12:02:38.831Z,38.86
2022-08-17T12:05:33.090Z,38.63
2022-08-17T12:08:15.157Z,38.51
2022-08-17T12:10:59.071Z,38.32
2022-08-17T12:13:33.977Z,38.28
2022-08-17T12:16:09.902Z,38.19
2022-08-17T12:18:41.778Z,38.00
2022-08-17T12:21:22.878Z,37.94
2022-08-17T12:23:58.876Z,37.93
2022-08-17T12:26:31.382Z,37.97
2022-08-17T12:29:02.138Z,38.04
2022-08-17T12:31:35.988Z,38.13
2022-08-17T12:34:05.183Z,38.43
2022-08-17T12:36:34.576Z,38.68
2022-08-17T12:39:14.114Z,38.83
2022-08-17T12:41:47.354Z,38.88
2022-08-17T12:44:17.700Z,38.90
2022-08-17T12:46:49.750Z,38.87
2022-08-17T12:49:29.884Z,38.97
2022-08-17T12:52:08.014Z,39.03
2022-08-17T12:54:46.688Z,39.12
2022-08-17T12:57:17.844Z,39.47
2022-08-17T12:59:50.019Z,39.59
2022-08-17T13:02:28.301Z,39.85
2022-08-17T13:04:58.057Z,39.82
2022-08-17T13:07:28.356Z,39.82
2022-08-17T13:09:57.738Z,39.97
2022-08-17T13:12:31.771Z,40.15
2022-08-17T13:15:00.268Z,40.39
2022-08-17T13:17:31.710Z,40.70
2022-08-17T13:20:00.325Z,40.89
2022-08-17T13:22:32.392Z,40.94
2022-08-17T13:25:07.016Z,40.99
2022-08-17T13:27:35.158Z,40.91
2022-08-17T13:30:08.156Z,40.96
2022-08-17T13:32:42.985Z,40.97
2022-08-17T13:35:40.041Z,40.91
2022-08-17T13:38:11.777Z,40.94
2022-08-17T13:40:45.100Z,41.16
2022-08-17T13:43:13.280Z,41.06
2022-08-17T13:45:50.883Z,41.27
2022-08-17T13:48:30.224Z,41.29
2022-08-17T13:51:16.187Z,41.49
2022-08-17T13:54:00.255Z,41.81
2022-08-17T13:56:39.923Z,41.95
2022-08-17T13:59:12.281Z,41.95
2022-08-17T14:01:43.498Z,41.96
2022-08-17T14:04:14.227Z,41.81
2022-08-17T14:06:53.033Z,41.95
2022-08-17T14:09:25.013Z,42.30
2022-08-17T14:11:55.757Z,42.43
2022-08-17T14:14:24.743Z,42.68
2022-08-17T14:16:53.566Z,42.87
2022-08-17T14:19:22.081Z,42.92
2022-08-17T14:21:50.943Z,43.01
2022-08-17T14:24:24.533Z,42.76
2022-08-17T14:26:54.058Z,42.73
2022-08-17T14:29:23.256Z,42.94
2022-08-17T14:31:54.460Z,42.96
2022-08-17T14:34:23.242Z,43.04
2022-08-17T14:36:51.510Z,43.07
2022-08-17T14:39:19.942Z,43.11
2022-08-17T14:41:48.521Z,42.93
2022-08-17T14:44:17.940Z,43.07
2022-08-17T14:46:46.261Z,42.83
2022-08-17T14:49:15.581Z,42.91
2022-08-17T14:51:44.557Z,42.87
2022-08-17T14:54:32.965Z,42.99
2022-08-17T14:57:22.319Z,42.97
2022-08-17T14:59:53.376Z,42.87
2022-08-17T15:02:29.703Z,42.89
2022-08-17T15:05:02.809Z,42.95
2022-08-17T15:07:31.500Z,42.93
2022-08-17T15:10:01.523Z,42.71
2022-08-17T15:12:34.272Z,42.40
2022-08-17T15:15:06.252Z,42.11
2022-08-17T15:17:44.376Z,41.79
2022-08-17T15:20:15.927Z,42.01
2022-08-17T15:22:45.077Z,42.15
2022-08-17T15:25:14.450Z,42.07
2022-08-17T15:27:42.892Z,42.32
2022-08-17T15:30:13.415Z,43.03
2022-08-17T15:32:50.727Z,43.60
2022-08-17T15:35:28.086Z,43.68
2022-08-17T15:37:58.198Z,43.42
2022-08-17T15:40:26.713Z,42.65
2022-08-17T15:42:54.765Z,41.99
2022-08-17T15:45:26.426Z,41.56
2022-08-17T15:47:54.972Z,41.21
2022-08-17T15:50:23.048Z,41.45
2022-08-17T15:52:56.858Z,42.01
2022-08-17T15:55:26.659Z,42.52
2022-08-17T15:57:55.220Z,43.09
2022-08-17T16:00:24.690Z,43.41
2022-08-17T16:03:14.042Z,43.06
2022-08-17T16:05:42.416Z,42.67
2022-08-17T16:08:11.199Z,42.89
2022-08-17T16:10:39.197Z,42.58
2022-08-17T16:13:17.635Z,42.09
2022-08-17T16:15:56.999Z,42.08
2022-08-17T16:18:30.831Z,42.48
2022-08-17T16:21:20.408Z,43.11
2022-08-17T16:23:49.212Z,43.64
2022-08-17T16:26:18.015Z,43.65
2022-08-17T16:28:46.562Z,43.78
2022-08-17T16:31:16.627Z,43.80
2022-08-17T16:34:15.674Z,43.97
2022-08-17T16:36:33.162Z,44.16
2022-08-17T16:39:01.418Z,44.13
2022-08-17T16:41:45.075Z,43.95
2022-08-17T16:44:15.293Z,43.52
2022-08-17T16:46:46.061Z,42.87
2022-08-17T16:49:35.796Z,42.33
2022-08-17T16:52:03.943Z,41.83
2022-08-17T16:54:32.576Z,41.42
2022-08-17T16:57:00.561Z,41.11
2022-08-17T16:59:39.399Z,40.77
2022-08-17T17:02:14.543Z,40.46
2022-08-17T17:04:50.160Z,40.06
2022-08-17T17:07:33.846Z,39.82
2022-08-17T17:10:08.081Z,39.62
2022-08-17T17:13:02.397Z,39.52
2022-08-17T17:15:32.485Z,39.37
2022-08-17T17:18:07.085Z,39.16
2022-08-17T17:20:43.701Z,39.02
2022-08-17T17:23:19.449Z,38.84
2022-08-17T17:25:59.628Z,38.66
2022-08-17T17:28:40.490Z,38.48
2022-08-17T17:31:14.766Z,38.27
2022-08-17T17:33:48.816Z,38.07
2022-08-17T17:36:25.970Z,37.85
2022-08-17T17:38:59.254Z,37.66
2022-08-17T17:41:33.853Z,37.42
2022-08-17T17:44:07.465Z,37.24
2022-08-17T17:46:39.452Z,37.00
2022-08-17T17:49:10.561Z,36.79
2022-08-17T17:52:03.601Z,36.64
2022-08-17T17:54:49.563Z,36.51
2022-08-17T17:57:28.668Z,36.30
2022-08-17T18:00:03.090Z,36.09
2022-08-17T18:03:01.892Z,35.92
2022-08-17T18:05:47.875Z,35.75
2022-08-17T18:08:33.877Z,35.58
2022-08-17T18:11:24.019Z,35.35
2022-08-17T18:14:04.624Z,35.17
2022-08-17T18:16:35.097Z,34.99
2022-08-17T18:19:03.111Z,34.85
2022-08-17T18:21:39.550Z,34.70
2022-08-17T18:24:10.547Z,34.55
2022-08-17T18:26:48.260Z,34.41
2022-08-17T18:29:34.350Z,34.26
2022-08-17T18:32:16.592Z,34.09
2022-08-17T18:34:48.004Z,33.95
2022-08-17T18:37:36.612Z,33.84
2022-08-17T18:40:37.498Z,33.75
2022-08-17T18:43:15.060Z,33.65
2022-08-17T18:45:46.965Z,33.53
2022-08-17T18:48:33.295Z,33.42
2022-08-17T18:51:05.737Z,33.33
2022-08-17T18:53:38.833Z,33.23
2022-08-17T18:56:28.108Z,33.12
2022-08-17T18:59:06.078Z,33.03
2022-08-17T19:01:53.910Z,32.88
2022-08-17T19:04:34.709Z,32.80
2022-08-17T19:07:23.186Z,32.71
2022-08-17T19:09:57.177Z,32.59
2022-08-17T19:12:31.926Z,32.46
2022-08-17T19:15:01.514Z,32.35
2022-08-17T19:17:37.187Z,32.24
2022-08-17T19:20:13.212Z,32.15
2022-08-17T19:22:53.954Z,32.08
2022-08-17T19:25:27.213Z,31.99
2022-08-17T19:28:00.600Z,31.87
2022-08-17T19:30:28.934Z,31.80
2022-08-17T19:32:58.341Z,31.76
2022-08-17T19:35:32.789Z,31.72
2022-08-17T19:38:13.175Z,31.70
2022-08-17T19:40:58.629Z,31.65
2022-08-17T19:43:38.455Z,31.57
2022-08-17T19:46:18.576Z,31.45
2022-08-17T19:48:57.591Z,31.36
2022-08-17T19:51:31.323Z,31.27
2022-08-17T19:54:06.772Z,31.19
2022-08-17T19:56:44.277Z,31.14
2022-08-17T19:59:17.134Z,31.05
2022-08-17T20:01:49.817Z,30.98
2022-08-17T20:04:31.860Z,30.90
2022-08-17T20:07:04.192Z,30.82
2022-08-17T20:09:37.503Z,30.74
2022-08-17T20:12:10.686Z,30.67
2022-08-17T20:14:53.441Z,30.61
2022-08-17T20:17:26.001Z,30.54
2022-08-17T20:20:04.787Z,30.46
2022-08-17T20:22:36.794Z,30.39
2022-08-17T20:25:29.881Z,30.29
2022-08-17T20:28:07.291Z,30.23
2022-08-17T20:30:38.648Z,30.21
2022-08-17T20:33:13.136Z,30.16
2022-08-17T20:36:00.447Z,30.05
2022-08-17T20:38:41.959Z,29.93
2022-08-17T20:41:13.115Z,29.85
2022-08-17T20:44:01.584Z,29.76
2022-08-17T20:46:52.643Z,29.68
2022-08-17T20:49:27.602Z,29.60
2022-08-17T20:52:02.587Z,29.54
2022-08-17T20:54:44.816Z,29.51
2022-08-17T20:57:42.990Z,29.46
2022-08-17T21:00:18.195Z,29.38
2022-08-17T21:02:49.575Z,29.25
2022-08-17T21:05:57.186Z,29.18
2022-08-17T21:08:31.715Z,29.14
2022-08-17T21:11:01.291Z,29.06
2022-08-17T21:14:06.629Z,29.03
2022-08-17T21:16:49.237Z,28.99
2022-08-17T21:19:31.259Z,28.89
2022-08-17T21:22:12.194Z,28.83
2022-08-17T21:24:51.738Z,28.78
2022-08-17T21:27:29.904Z,28.75
2022-08-17T21:30:23.189Z,28.69
2022-08-17T21:33:24.970Z,28.63
2022-08-17T21:36:15.963Z,28.60
2022-08-17T21:38:57.812Z,28.57
2022-08-17T21:41:29.506Z,28.53
2022-08-17T21:44:03.661Z,28.42
2022-08-17T21:46:36.808Z,28.31
2022-08-17T21:49:13.313Z,28.23
2022-08-17T21:51:45.332Z,28.17
2022-08-17T21:54:31.826Z,28.10
2022-08-17T21:57:02.460Z,28.05
2022-08-17T21:59:35.676Z,27.97
2022-08-17T22:02:07.144Z,27.88
2022-08-17T22:04:38.698Z,27.82
2022-08-17T22:07:10.623Z,27.79
2022-08-17T22:09:43.656Z,27.72
2022-08-17T22:12:16.088Z,27.65
2022-08-17T22:14:52.486Z,27.63
2022-08-17T22:17:25.042Z,27.58
2022-08-17T22:19:57.300Z,27.50
2022-08-17T22:22:57.734Z,27.45
2022-08-17T22:25:27.067Z,27.40
2022-08-17T22:28:01.088Z,27.29
2022-08-17T22:30:33.447Z,27.23
2022-08-17T22:33:22.134Z,27.10
2022-08-17T22:36:10.406Z,27.15
2022-08-17T22:38:39.300Z,27.19
2022-08-17T22:41:38.144Z,27.11
2022-08-17T22:44:17.181Z,27.08
2022-08-17T22:46:58.796Z,26.99
2022-08-17T22:49:31.254Z,27.00
2022-08-17T22:52:08.776Z,26.91
2022-08-17T22:54:54.951Z,26.84
2022-08-17T22:57:42.873Z,26.78
2022-08-17T23:00:30.081Z,26.75
2022-08-17T23:03:11.266Z,26.76
2022-08-17T23:05:40.849Z,26.75
2022-08-17T23:08:11.335Z,26.72
2022-08-17T23:10:39.533Z,26.68
2022-08-17T23:13:11.731Z,26.69
2022-08-17T23:15:41.072Z,26.64
2022-08-17T23:18:08.934Z,26.62
2022-08-17T23:20:38.251Z,26.58
2022-08-17T23:23:08.923Z,26.53
2022-08-17T23:25:38.312Z,26.48
2022-08-17T23:28:07.891Z,26.44
2022-08-17T23:30:38.148Z,26.38
2022-08-17T23:33:09.475Z,26.33
2022-08-17T23:35:39.770Z,26.32
2022-08-17T23:38:10.054Z,26.28
2022-08-17T23:40:39.979Z,26.25
2022-08-17T23:43:23.623Z,26.21
2022-08-17T23:45:54.975Z,26.18
2022-08-17T23:48:27.823Z,26.12
2022-08-17T23:51:10.577Z,26.07
2022-08-17T23:53:44.069Z,26.03
2022-08-17T23:56:13.661Z,26.00
2022-08-17T23:58:43.127Z,25.98
